Time;durP1;ratioP1;P1;durP2;ratioP2;P2;SDS_P1;SDS_P2;PMS_P1;PMS_P2;Temp;Humidity;BMP_temperature;BMP_pressure;BME280_temperature;BME280_humidity;BME280_pressure;Samples;Min_cycle;Max_cycle;Signal;HPM_P1;HPM_P2
2023/06/18 00:00:39;;;;;;;10.38;7.60;;;17.20;99.90;;;;;;5055505;28;20123;-57
2023/06/18 00:03:05;;;;;;;11.90;7.28;;;17.20;99.90;;;;;;5059812;28;20035;-57
2023/06/18 00:05:31;;;;;;;12.90;7.72;;;17.00;99.90;;;;;;5060468;28;20037;-58
2023/06/18 00:07:57;;;;;;;11.15;7.80;;;17.20;99.90;;;;;;5059689;28;20070;-57
2023/06/18 00:10:22;;;;;;;13.05;7.20;;;17.40;99.90;;;;;;5059044;28;20032;-58
2023/06/18 00:12:48;;;;;;;13.00;7.85;;;17.20;99.90;;;;;;5054920;28;20045;-58
2023/06/18 00:15:13;;;;;;;10.85;7.55;;;17.20;99.90;;;;;;5054872;28;20041;-58
2023/06/18 00:17:39;;;;;;;12.25;8.35;;;17.50;99.90;;;;;;5060003;28;20487;-58
2023/06/18 00:20:05;;;;;;;14.45;8.35;;;17.40;99.90;;;;;;5066234;28;20029;-57
2023/06/18 00:22:31;;;;;;;11.95;8.20;;;17.40;99.90;;;;;;5059746;28;20048;-58
2023/06/18 00:24:57;;;;;;;14.88;9.30;;;17.60;99.90;;;;;;5062754;28;20036;-58
2023/06/18 00:27:22;;;;;;;12.68;9.07;;;17.50;99.90;;;;;;5058855;28;20384;-58
2023/06/18 00:29:48;;;;;;;12.20;9.10;;;17.60;99.90;;;;;;5065327;28;20250;-58
2023/06/18 00:32:17;;;;;;;11.90;8.63;;;17.60;99.90;;;;;;5065819;28;20165;-58
2023/06/18 00:34:42;;;;;;;10.88;8.00;;;17.30;99.90;;;;;;5057357;28;20507;-58
2023/06/18 00:37:12;;;;;;;10.30;8.25;;;17.30;99.90;;;;;;5061771;28;20021;-57
2023/06/18 00:39:38;;;;;;;12.60;8.10;;;17.30;99.90;;;;;;5058549;28;20037;-58
2023/06/18 00:42:11;;;;;;;12.02;7.80;;;17.30;99.90;;;;;;5057068;28;20024;-58
2023/06/18 00:44:40;;;;;;;12.40;8.40;;;17.20;99.90;;;;;;5059200;28;20056;-58
2023/06/18 00:47:11;;;;;;;13.10;7.75;;;17.20;99.90;;;;;;5056354;28;20037;-57
2023/06/18 00:49:37;;;;;;;10.38;7.70;;;17.30;99.90;;;;;;5059073;28;20045;-57
2023/06/18 00:52:03;;;;;;;12.32;8.05;;;17.20;99.90;;;;;;5064889;28;20051;-59
2023/06/18 00:54:32;;;;;;;13.77;8.05;;;17.20;99.90;;;;;;5059273;28;20119;-58
2023/06/18 00:56:59;;;;;;;12.75;7.55;;;17.20;99.90;;;;;;5063354;28;20124;-58
2023/06/18 00:59:25;;;;;;;10.88;7.68;;;17.20;99.90;;;;;;5059410;28;20036;-58
2023/06/18 01:01:55;;;;;;;12.85;8.02;;;17.20;99.90;;;;;;5063388;28;20036;-57
2023/06/18 01:04:23;;;;;;;11.35;8.18;;;17.30;99.90;;;;;;5051697;28;20163;-58
2023/06/18 01:06:54;;;;;;;11.35;7.78;;;17.30;99.90;;;;;;5057271;28;20041;-57
2023/06/18 01:09:25;;;;;;;11.40;8.07;;;17.30;99.90;;;;;;5062320;28;20036;-58
2023/06/18 01:11:52;;;;;;;11.70;7.85;;;17.30;99.90;;;;;;5056718;28;20568;-59
2023/06/18 01:14:22;;;;;;;11.48;7.88;;;17.30;99.90;;;;;;5060752;28;20048;-58
2023/06/18 01:16:49;;;;;;;10.95;7.70;;;17.40;99.90;;;;;;5050859;28;20043;-57
2023/06/18 01:19:31;;;;;;;9.38;7.63;;;17.40;99.90;;;;;;5054244;28;20120;-58
2023/06/18 01:22:06;;;;;;;12.73;7.63;;;17.40;99.90;;;;;;5063266;28;20045;-58
2023/06/18 01:24:36;;;;;;;13.05;8.30;;;17.30;99.90;;;;;;5066168;28;20847;-57
2023/06/18 01:27:03;;;;;;;12.45;7.70;;;17.40;99.90;;;;;;5068387;28;20040;-58
2023/06/18 01:29:30;;;;;;;10.02;7.70;;;17.40;99.90;;;;;;5065805;28;20060;-57
2023/06/18 01:31:56;;;;;;;12.90;7.82;;;17.50;99.90;;;;;;5065200;28;20124;-57
2023/06/18 01:34:24;;;;;;;8.68;7.53;;;17.50;99.90;;;;;;5057571;28;20124;-57
2023/06/18 01:37:01;;;;;;;10.60;7.72;;;17.40;99.90;;;;;;5047844;28;20127;-58
2023/06/18 01:39:37;;;;;;;9.50;7.53;;;17.40;99.90;;;;;;5063841;28;20044;-58
2023/06/18 01:42:16;;;;;;;10.15;7.53;;;17.50;99.90;;;;;;5056683;28;21936;-58
2023/06/18 01:44:51;;;;;;;9.30;7.22;;;17.40;99.90;;;;;;5054401;28;20392;-57
2023/06/18 01:47:20;;;;;;;12.88;7.40;;;17.50;99.90;;;;;;5057226;28;20036;-58
2023/06/18 01:49:46;;;;;;;12.40;7.72;;;17.40;99.90;;;;;;5057967;28;20492;-57
2023/06/18 01:52:15;;;;;;;12.90;8.00;;;17.40;99.90;;;;;;5053759;28;20076;-58
2023/06/18 01:54:46;;;;;;;14.95;8.27;;;17.50;99.90;;;;;;5060422;28;20032;-58
2023/06/18 01:57:13;;;;;;;10.93;8.25;;;17.30;99.90;;;;;;5064446;28;20032;-58
2023/06/18 01:59:43;;;;;;;11.20;6.97;;;17.20;99.90;;;;;;5065382;28;20041;-58
2023/06/18 02:02:09;;;;;;;9.27;7.68;;;17.20;99.90;;;;;;5057954;28;20052;-58
2023/06/18 02:04:35;;;;;;;9.15;7.80;;;17.30;99.90;;;;;;5060778;28;20439;-58
2023/06/18 02:07:00;;;;;;;11.27;8.02;;;17.10;99.90;;;;;;5064640;28;20041;-58
2023/06/18 02:09:26;;;;;;;11.70;8.50;;;17.20;99.90;;;;;;5061085;28;20059;-58
2023/06/18 02:11:51;;;;;;;8.95;7.70;;;17.20;99.90;;;;;;5057669;28;20089;-58
2023/06/18 02:14:17;;;;;;;11.30;7.97;;;17.20;99.90;;;;;;5061365;28;20044;-58
2023/06/18 02:16:42;;;;;;;12.25;7.93;;;17.10;99.90;;;;;;5059419;28;20056;-57
2023/06/18 02:19:08;;;;;;;15.77;8.23;;;17.10;99.90;;;;;;5062224;28;20396;-58
2023/06/18 02:21:34;;;;;;;11.13;7.50;;;17.10;99.90;;;;;;5065362;28;20036;-58
2023/06/18 02:23:59;;;;;;;12.45;8.18;;;17.10;99.90;;;;;;5064299;28;20052;-58
2023/06/18 02:26:25;;;;;;;10.75;8.43;;;17.10;99.90;;;;;;5061588;28;20028;-57
2023/06/18 02:28:51;;;;;;;10.18;8.00;;;17.10;99.90;;;;;;5057066;28;20444;-58
2023/06/18 02:31:16;;;;;;;12.82;8.07;;;17.10;99.90;;;;;;5063846;28;20031;-58
2023/06/18 02:33:42;;;;;;;12.27;8.30;;;17.10;99.90;;;;;;5066983;28;20068;-58
2023/06/18 02:36:09;;;;;;;9.75;8.23;;;17.00;99.90;;;;;;5059468;28;20039;-58
2023/06/18 02:38:35;;;;;;;13.77;8.60;;;16.80;99.90;;;;;;5059784;28;20131;-58
2023/06/18 02:41:00;;;;;;;10.68;7.90;;;16.80;99.90;;;;;;5062015;28;20136;-58
2023/06/18 02:43:28;;;;;;;14.73;8.40;;;16.80;99.90;;;;;;5064909;28;20060;-57
2023/06/18 02:45:54;;;;;;;11.95;8.13;;;16.70;99.90;;;;;;5065951;28;20044;-58
2023/06/18 02:48:19;;;;;;;9.75;8.10;;;16.60;99.90;;;;;;5065469;28;20060;-58
2023/06/18 02:50:45;;;;;;;10.82;8.77;;;16.60;99.90;;;;;;5057399;28;20028;-58
2023/06/18 02:53:11;;;;;;;11.75;8.30;;;16.60;99.90;;;;;;5055572;28;20519;-57
2023/06/18 02:55:36;;;;;;;12.73;7.75;;;16.60;99.90;;;;;;5050677;28;20472;-58
2023/06/18 02:58:03;;;;;;;15.82;8.48;;;16.60;99.90;;;;;;5060912;28;20090;-58
2023/06/18 03:00:28;;;;;;;11.40;8.38;;;16.60;99.90;;;;;;5063748;28;20037;-58
2023/06/18 03:02:54;;;;;;;14.85;9.25;;;16.60;99.90;;;;;;5062891;28;20044;-58
2023/06/18 03:05:20;;;;;;;13.10;8.73;;;16.60;99.90;;;;;;5056182;28;20467;-58
2023/06/18 03:07:45;;;;;;;13.00;9.20;;;16.60;99.90;;;;;;5061418;28;20093;-58
2023/06/18 03:10:11;;;;;;;9.75;7.93;;;16.60;99.90;;;;;;5053061;28;20044;-58
2023/06/18 03:12:37;;;;;;;12.07;8.30;;;16.50;99.90;;;;;;5057896;28;20082;-58
2023/06/18 03:15:06;;;;;;;13.20;8.63;;;16.50;99.90;;;;;;5064618;28;20659;-58
2023/06/18 03:17:32;;;;;;;11.13;8.52;;;16.40;99.90;;;;;;5069773;28;20075;-58
2023/06/18 03:19:58;;;;;;;16.63;9.13;;;16.40;99.90;;;;;;5051035;28;20068;-58
2023/06/18 03:22:23;;;;;;;11.65;8.45;;;16.30;99.90;;;;;;5066498;28;20611;-58
2023/06/18 03:24:49;;;;;;;11.90;8.75;;;16.40;99.90;;;;;;5053631;28;20393;-58
2023/06/18 03:27:15;;;;;;;13.68;8.88;;;16.40;99.90;;;;;;5062563;28;20028;-58
2023/06/18 03:29:41;;;;;;;11.45;8.70;;;16.40;99.90;;;;;;5063230;28;20378;-58
2023/06/18 03:32:08;;;;;;;12.48;9.10;;;16.50;99.90;;;;;;5063027;28;20028;-58
2023/06/18 03:34:35;;;;;;;11.38;8.85;;;16.40;99.90;;;;;;5059633;28;20426;-57
2023/06/18 03:37:01;;;;;;;11.85;9.10;;;16.40;99.90;;;;;;5055333;28;20050;-58
2023/06/18 03:39:27;;;;;;;12.85;8.98;;;16.30;99.90;;;;;;5060670;28;20043;-58
2023/06/18 03:41:52;;;;;;;13.90;8.80;;;16.40;99.90;;;;;;5062832;28;20025;-58
2023/06/18 03:44:18;;;;;;;11.07;8.50;;;16.30;99.90;;;;;;5061969;28;20609;-58
2023/06/18 03:46:43;;;;;;;13.63;8.65;;;16.30;99.90;;;;;;5060408;28;20413;-58
2023/06/18 03:49:09;;;;;;;12.10;8.57;;;16.30;99.90;;;;;;5060840;28;20412;-58
2023/06/18 03:51:34;;;;;;;12.25;8.25;;;16.30;99.90;;;;;;5068610;28;20041;-58
2023/06/18 03:54:00;;;;;;;11.13;8.32;;;16.30;99.90;;;;;;5056397;28;20036;-58
2023/06/18 03:56:26;;;;;;;12.48;8.55;;;16.40;99.90;;;;;;5060782;28;20032;-58
2023/06/18 03:58:52;;;;;;;11.73;8.23;;;16.40;99.90;;;;;;5061719;28;20040;-58
2023/06/18 04:01:18;;;;;;;14.95;9.02;;;16.40;99.90;;;;;;5067023;28;20034;-57
2023/06/18 04:03:43;;;;;;;11.38;8.52;;;16.40;99.90;;;;;;5062616;28;20033;-58
2023/06/18 04:06:09;;;;;;;12.82;9.00;;;16.50;99.90;;;;;;5056456;28;20462;-57
2023/06/18 04:08:35;;;;;;;13.30;9.10;;;16.60;99.90;;;;;;5061311;28;20492;-58
2023/06/18 04:11:01;;;;;;;12.80;8.98;;;16.50;99.90;;;;;;5060307;28;20251;-58
2023/06/18 04:13:28;;;;;;;13.63;9.35;;;16.60;99.90;;;;;;5069294;28;20424;-58
2023/06/18 04:15:53;;;;;;;11.43;8.85;;;16.60;99.90;;;;;;5061307;28;20392;-58
2023/06/18 04:18:20;;;;;;;13.45;9.02;;;16.60;99.90;;;;;;5063772;28;20045;-58
2023/06/18 04:20:46;;;;;;;13.25;8.93;;;16.60;99.90;;;;;;5060951;28;20060;-58
2023/06/18 04:23:12;;;;;;;14.07;9.70;;;16.60;99.90;;;;;;5062612;28;20127;-58
2023/06/18 04:25:38;;;;;;;13.07;9.27;;;16.60;99.90;;;;;;5057789;28;20033;-58
2023/06/18 04:28:04;;;;;;;10.75;9.00;;;16.60;99.90;;;;;;5064807;28;20063;-58
2023/06/18 04:30:30;;;;;;;14.40;9.88;;;16.60;99.90;;;;;;5071851;28;20046;-57
2023/06/18 04:32:56;;;;;;;15.25;9.80;;;16.70;99.90;;;;;;5065504;28;20036;-58
2023/06/18 04:35:21;;;;;;;12.73;10.38;;;16.80;99.90;;;;;;5067867;28;20559;-58
2023/06/18 04:37:47;;;;;;;12.98;9.85;;;16.90;99.90;;;;;;5061914;28;20124;-57
2023/06/18 04:40:13;;;;;;;15.88;10.98;;;17.00;99.90;;;;;;5060819;28;20174;-57
2023/06/18 04:42:38;;;;;;;15.73;10.38;;;17.10;99.90;;;;;;5067959;28;20384;-59
2023/06/18 04:45:05;;;;;;;14.02;10.65;;;17.20;99.90;;;;;;5054933;28;20048;-59
2023/06/18 04:47:30;;;;;;;12.40;10.80;;;17.50;99.90;;;;;;5064037;28;22146;-59
2023/06/18 04:49:56;;;;;;;15.10;11.68;;;17.50;99.90;;;;;;5063130;28;20053;-59
2023/06/18 04:52:22;;;;;;;16.10;11.18;;;17.70;99.90;;;;;;5060641;28;20373;-59
2023/06/18 04:54:47;;;;;;;16.92;11.07;;;17.80;99.90;;;;;;5060636;28;20032;-59
2023/06/18 04:57:13;;;;;;;15.05;11.40;;;17.90;99.90;;;;;;5056749;28;20496;-58
2023/06/18 04:59:39;;;;;;;18.92;11.10;;;18.00;99.90;;;;;;5058836;28;20031;-59
2023/06/18 05:02:06;;;;;;;15.35;10.90;;;18.20;99.90;;;;;;5054647;28;20492;-58
2023/06/18 05:04:32;;;;;;;13.70;10.45;;;;;;;;;;5062990;28;20471;-59
2023/06/18 05:06:58;;;;;;;18.02;10.77;;;18.40;99.90;;;;;;5063642;28;20033;-59
2023/06/18 05:09:26;;;;;;;17.17;9.85;;;18.50;99.90;;;;;;5061741;28;20236;-59
2023/06/18 05:11:51;;;;;;;13.25;9.27;;;18.50;99.90;;;;;;5063435;28;20029;-58
2023/06/18 05:14:17;;;;;;;11.40;8.80;;;18.60;99.90;;;;;;5063605;28;20035;-59
2023/06/18 05:16:43;;;;;;;11.38;9.35;;;18.60;99.90;;;;;;5060108;28;20036;-59
2023/06/18 05:19:08;;;;;;;13.05;8.93;;;18.70;99.90;;;;;;5060631;28;20036;-59
2023/06/18 05:21:34;;;;;;;16.50;9.20;;;18.70;99.90;;;;;;5052813;28;20107;-59
2023/06/18 05:23:59;;;;;;;12.02;9.00;;;18.70;99.90;;;;;;5054444;28;20040;-58
2023/06/18 05:26:25;;;;;;;12.20;9.00;;;18.70;99.90;;;;;;5056715;28;20036;-59
2023/06/18 05:28:51;;;;;;;11.55;9.15;;;18.80;99.90;;;;;;5064988;28;20099;-58
2023/06/18 05:31:16;;;;;;;13.07;9.30;;;18.80;99.90;;;;;;5061663;28;20087;-58
2023/06/18 05:33:42;;;;;;;11.82;9.50;;;18.90;99.90;;;;;;5072958;28;20028;-59
2023/06/18 05:36:07;;;;;;;13.35;9.25;;;19.00;99.90;;;;;;5050908;28;20082;-59
2023/06/18 05:38:33;;;;;;;13.50;9.82;;;19.10;99.90;;;;;;5064639;28;20033;-59
2023/06/18 05:40:59;;;;;;;16.98;10.30;;;19.10;99.90;;;;;;5060989;28;20460;-59
2023/06/18 05:43:24;;;;;;;15.23;9.93;;;19.30;99.90;;;;;;5069296;28;20032;-58
2023/06/18 05:45:50;;;;;;;16.90;9.85;;;19.20;99.90;;;;;;5068890;28;20064;-59
2023/06/18 05:48:16;;;;;;;18.42;10.75;;;19.20;99.90;;;;;;5054210;28;20507;-58
2023/06/18 05:50:42;;;;;;;12.38;9.77;;;19.40;99.90;;;;;;5068114;28;20497;-59
2023/06/18 05:53:08;;;;;;;15.63;10.07;;;19.40;99.90;;;;;;5065989;28;20039;-59
2023/06/18 05:55:33;;;;;;;16.00;10.30;;;19.40;99.90;;;;;;5067204;28;20059;-59
2023/06/18 05:57:59;;;;;;;11.75;9.60;;;19.50;99.90;;;;;;5060317;28;20640;-59
2023/06/18 06:00:26;;;;;;;14.57;9.50;;;19.70;99.90;;;;;;5066329;28;20045;-59
2023/06/18 06:02:52;;;;;;;12.05;9.07;;;19.80;99.90;;;;;;5062618;28;20033;-59
2023/06/18 06:05:18;;;;;;;12.13;8.82;;;19.80;99.90;;;;;;5064253;28;20457;-58
2023/06/18 06:07:43;;;;;;;14.82;8.63;;;20.00;99.90;;;;;;5062319;28;20029;-59
2023/06/18 06:10:11;;;;;;;9.73;8.02;;;20.30;99.90;;;;;;5061295;28;20037;-59
2023/06/18 06:12:37;;;;;;;10.45;8.00;;;20.50;99.90;;;;;;5060344;28;20052;-59
2023/06/18 06:15:04;;;;;;;12.57;9.38;;;20.40;99.90;;;;;;5054561;28;20063;-58
2023/06/18 06:17:30;;;;;;;17.27;11.73;;;20.60;99.90;;;;;;5064642;28;20184;-59
2023/06/18 06:19:55;;;;;;;16.55;11.80;;;20.80;99.90;;;;;;5064825;28;20041;-58
2023/06/18 06:22:21;;;;;;;14.48;8.68;;;20.70;99.90;;;;;;5055577;28;20090;-58
2023/06/18 06:24:46;;;;;;;13.23;7.57;;;20.80;99.90;;;;;;5062506;28;20025;-58
2023/06/18 06:27:12;;;;;;;9.77;7.32;;;21.00;99.90;;;;;;5059704;28;20032;-58
2023/06/18 06:29:37;;;;;;;11.18;6.63;;;21.10;99.90;;;;;;5058823;28;20533;-58
2023/06/18 06:32:03;;;;;;;9.02;6.80;;;21.20;99.90;;;;;;5053812;28;20032;-58
2023/06/18 06:34:29;;;;;;;8.57;6.72;;;21.30;99.90;;;;;;5062630;28;20044;-58
2023/06/18 06:36:55;;;;;;;9.77;6.93;;;21.00;99.90;;;;;;5061258;28;20345;-58
2023/06/18 06:39:20;;;;;;;9.10;6.70;;;21.30;99.90;;;;;;5059124;28;20040;-58
2023/06/18 06:41:46;;;;;;;10.10;6.40;;;21.40;99.90;;;;;;5061815;28;20442;-58
2023/06/18 06:44:12;;;;;;;7.40;6.22;;;21.40;99.90;;;;;;5051105;28;20066;-58
2023/06/18 06:46:37;;;;;;;11.15;6.65;;;21.40;99.90;;;;;;5064173;28;20045;-58
2023/06/18 06:49:07;;;;;;;11.38;6.47;;;21.50;99.90;;;;;;5053758;28;20033;-58
2023/06/18 06:51:36;;;;;;;11.00;6.00;;;21.50;99.90;;;;;;5063397;28;20116;-58
2023/06/18 06:54:02;;;;;;;9.50;6.18;;;21.60;99.90;;;;;;5059124;28;20064;-59
2023/06/18 06:56:28;;;;;;;7.38;6.20;;;21.70;99.90;;;;;;5054600;28;20037;-59
2023/06/18 06:58:53;;;;;;;9.05;6.00;;;21.80;99.90;;;;;;5067270;28;20044;-59
2023/06/18 07:01:20;;;;;;;7.70;6.43;;;21.90;99.90;;;;;;5060719;28;20040;-58
2023/06/18 07:03:46;;;;;;;8.35;6.20;;;22.00;99.90;;;;;;5065306;28;20147;-58
2023/06/18 07:06:11;;;;;;;7.68;6.20;;;22.10;99.90;;;;;;5059908;28;20064;-59
2023/06/18 07:08:37;;;;;;;9.38;6.13;;;22.10;99.90;;;;;;5057636;28;20036;-59
2023/06/18 07:11:03;;;;;;;8.23;5.78;;;22.20;99.90;;;;;;5060113;28;20452;-60
2023/06/18 07:13:28;;;;;;;10.50;6.20;;;22.40;99.90;;;;;;5058513;28;20055;-61
2023/06/18 07:15:54;;;;;;;8.68;6.32;;;22.50;99.90;;;;;;5061115;28;20033;-60
2023/06/18 07:18:20;;;;;;;8.57;6.18;;;22.70;99.90;;;;;;5059561;28;20114;-60
2023/06/18 07:20:45;;;;;;;15.65;6.60;;;22.80;99.90;;;;;;5061510;28;20067;-61
2023/06/18 07:23:11;;;;;;;8.27;5.95;;;22.80;99.90;;;;;;5061062;28;20522;-61
2023/06/18 07:25:36;;;;;;;10.27;5.85;;;22.90;99.90;;;;;;5062762;28;20338;-61
2023/06/18 07:28:02;;;;;;;6.65;5.75;;;23.00;99.90;;;;;;5064223;28;20718;-61
2023/06/18 07:30:28;;;;;;;7.18;6.10;;;23.20;99.90;;;;;;5064745;28;20032;-60
2023/06/18 07:32:53;;;;;;;8.40;6.18;;;23.30;99.90;;;;;;5064544;28;20386;-61
2023/06/18 07:35:19;;;;;;;8.30;5.78;;;23.50;99.90;;;;;;5059618;28;20131;-61
2023/06/18 07:37:45;;;;;;;11.15;6.35;;;23.50;99.90;;;;;;5059706;28;20428;-61
2023/06/18 07:40:11;;;;;;;7.80;6.00;;;23.60;99.90;;;;;;5060296;28;20044;-61
2023/06/18 07:42:36;;;;;;;8.80;5.93;;;23.60;99.90;;;;;;5060384;28;20036;-61
2023/06/18 07:45:02;;;;;;;8.52;6.03;;;23.70;99.90;;;;;;5055088;28;20036;-60
2023/06/18 07:47:28;;;;;;;11.57;6.18;;;23.80;99.90;;;;;;5064743;28;20094;-61
2023/06/18 07:49:53;;;;;;;10.13;6.10;;;23.80;99.90;;;;;;5068590;28;20117;-61
2023/06/18 07:52:19;;;;;;;9.32;6.22;;;23.80;99.90;;;;;;5061567;27;20040;-58
2023/06/18 07:54:45;;;;;;;8.98;5.85;;;23.70;99.90;;;;;;5066577;28;20048;-58
2023/06/18 07:57:10;;;;;;;9.50;6.43;;;23.70;99.90;;;;;;5063562;28;20040;-58
2023/06/18 07:59:36;;;;;;;8.52;6.03;;;23.60;99.90;;;;;;5064930;28;20036;-58
2023/06/18 08:02:02;;;;;;;13.00;6.40;;;23.70;99.90;;;;;;5062346;28;20041;-58
2023/06/18 08:04:27;;;;;;;10.65;6.20;;;23.80;99.90;;;;;;5061658;28;20167;-58
2023/06/18 08:06:53;;;;;;;9.55;5.95;;;23.70;99.90;;;;;;5063775;28;20060;-57
2023/06/18 08:09:18;;;;;;;8.30;5.78;;;23.90;99.90;;;;;;5057970;28;20029;-57
2023/06/18 08:11:44;;;;;;;6.70;5.95;;;23.30;99.90;;;;;;5058112;28;20028;-57
2023/06/18 08:14:11;;;;;;;9.10;6.13;;;24.10;99.90;;;;;;5060288;28;20075;-57
2023/06/18 08:16:38;;;;;;;9.02;5.97;;;24.20;99.90;;;;;;5060481;28;20493;-58
2023/06/18 08:19:03;;;;;;;10.95;6.32;;;24.50;99.90;;;;;;5057640;28;20515;-57
2023/06/18 08:21:29;;;;;;;7.90;5.85;;;24.50;99.90;;;;;;5056565;28;20059;-57
2023/06/18 08:23:55;;;;;;;12.50;9.15;;;24.70;99.90;;;;;;5057790;28;20028;-60
2023/06/18 08:26:22;;;;;;;8.40;6.32;;;24.80;99.90;;;;;;5056353;28;20075;-60
2023/06/18 08:28:51;;;;;;;9.70;6.05;;;24.80;99.80;;;;;;5059495;28;20044;-60
2023/06/18 08:31:17;;;;;;;6.90;5.80;;;24.80;99.90;;;;;;5054021;28;20036;-60
2023/06/18 08:33:42;;;;;;;10.43;6.40;;;24.70;99.90;;;;;;5052715;28;20373;-60
2023/06/18 08:36:09;;;;;;;10.32;6.45;;;24.80;99.90;;;;;;5057830;28;20055;-60
2023/06/18 08:38:35;;;;;;;11.65;6.00;;;24.80;99.90;;;;;;5058625;28;20049;-60
2023/06/18 08:41:02;;;;;;;9.15;6.00;;;24.80;99.90;;;;;;5057610;28;20040;-60
2023/06/18 08:43:32;;;;;;;9.30;6.15;;;24.90;99.90;;;;;;5052212;28;20158;-60
2023/06/18 08:46:20;;;;;;;8.65;6.43;;;25.00;99.90;;;;;;5057133;28;20032;-60
2023/06/18 08:49:00;;;;;;;10.25;6.30;;;25.00;99.90;;;;;;5058750;28;20462;-61
2023/06/18 08:51:26;;;;;;;8.52;6.38;;;24.80;99.90;;;;;;5056107;28;20090;-60
2023/06/18 08:54:05;;;;;;;9.23;6.13;;;24.80;99.90;;;;;;5054742;28;20127;-60
2023/06/18 08:56:33;;;;;;;8.90;6.15;;;24.80;99.90;;;;;;5060909;28;20438;-60
2023/06/18 08:59:00;;;;;;;8.93;6.40;;;24.90;99.90;;;;;;5063533;28;20442;-60
2023/06/18 09:01:26;;;;;;;8.27;5.50;;;24.90;99.90;;;;;;5057366;28;20048;-60
2023/06/18 09:03:54;;;;;;;17.02;6.20;;;24.90;99.90;;;;;;5055646;28;20040;-60
2023/06/18 09:06:22;;;;;;;10.60;6.00;;;24.80;99.50;;;;;;5059980;28;20579;-60
2023/06/18 09:08:48;;;;;;;9.32;6.38;;;24.50;99.90;;;;;;5059315;28;20105;-60
2023/06/18 09:11:14;;;;;;;11.70;6.20;;;24.30;99.90;;;;;;5058266;28;20396;-60
2023/06/18 09:13:41;;;;;;;8.50;5.53;;;24.50;99.90;;;;;;5050953;28;20242;-60
2023/06/18 09:16:08;;;;;;;8.90;5.88;;;24.80;99.90;;;;;;5051253;28;20035;-60
2023/06/18 09:18:34;;;;;;;10.68;6.47;;;25.00;99.90;;;;;;5054746;28;20078;-61
2023/06/18 09:20:59;;;;;;;10.20;5.97;;;25.10;99.90;;;;;;5055194;28;20083;-64
2023/06/18 09:23:25;;;;;;;10.15;6.18;;;25.20;99.90;;;;;;5057925;28;20068;-61
2023/06/18 09:25:55;;;;;;;10.77;5.90;;;25.40;99.90;;;;;;5058266;28;20131;-61
2023/06/18 09:28:22;;;;;;;9.10;5.43;;;25.50;93.30;;;;;;5059037;28;20445;-61
2023/06/18 09:30:59;;;;;;;8.60;5.80;;;25.70;97.90;;;;;;5060463;28;20035;-61
2023/06/18 09:33:32;;;;;;;8.07;5.45;;;25.70;96.90;;;;;;5054713;28;20037;-61
2023/06/18 09:36:05;;;;;;;;;;;25.70;92.50;;;;;;5057392;28;20055;-61
2023/06/18 09:38:34;;;;;;;7.60;5.45;;;25.60;90.90;;;;;;5057474;28;19948;-61
2023/06/18 09:41:00;;;;;;;8.80;5.72;;;25.60;90.20;;;;;;5060986;28;20041;-61
2023/06/18 09:43:36;;;;;;;8.95;5.45;;;25.90;92.30;;;;;;5057977;28;20354;-61
2023/06/18 09:46:06;;;;;;;8.05;5.40;;;25.90;92.20;;;;;;5052789;28;20500;-61
2023/06/18 09:48:36;;;;;;;9.30;5.57;;;25.90;92.30;;;;;;5055755;28;20045;-61
2023/06/18 09:51:02;;;;;;;7.78;4.88;;;25.60;86.90;;;;;;5046075;28;20080;-61
2023/06/18 09:53:28;;;;;;;6.63;5.53;;;25.70;93.90;;;;;;5049272;28;20132;-61
2023/06/18 09:56:07;;;;;;;6.40;5.13;;;25.80;92.40;;;;;;5056255;28;20131;-61
2023/06/18 09:58:40;;;;;;;8.23;5.70;;;25.90;89.80;;;;;;5058997;28;20041;-61
2023/06/18 10:01:06;;;;;;;9.45;5.18;;;26.00;83.00;;;;;;5060734;28;20033;-60
2023/06/18 10:03:32;;;;;;;8.27;5.32;;;26.00;86.80;;;;;;5066970;28;20495;-61
2023/06/18 10:06:10;;;;;;;8.43;4.95;;;26.10;90.00;;;;;;5051385;28;20033;-61
2023/06/18 10:08:38;;;;;;;9.15;5.30;;;26.20;88.80;;;;;;5057953;28;20040;-61
2023/06/18 10:11:09;;;;;;;6.60;4.95;;;26.10;78.40;;;;;;5056858;28;20135;-61
2023/06/18 10:13:44;;;;;;;6.88;5.30;;;26.10;81.10;;;;;;5056365;28;20335;-61
2023/06/18 10:16:18;;;;;;;9.55;5.18;;;26.30;80.80;;;;;;5070215;28;20296;-61
2023/06/18 10:19:06;;;;;;;10.05;5.38;;;26.40;83.20;;;;;;5060074;28;20319;-60
2023/06/18 10:21:36;;;;;;;10.02;5.15;;;26.50;75.70;;;;;;5062642;28;20127;-61
2023/06/18 10:24:11;;;;;;;10.15;5.50;;;26.20;75.00;;;;;;5056114;28;20036;-61
2023/06/18 10:26:38;;;;;;;10.73;5.40;;;26.00;79.60;;;;;;5059871;28;20618;-62
2023/06/18 10:29:05;;;;;;;5.60;4.80;;;26.30;79.20;;;;;;5059420;28;20047;-61
2023/06/18 10:31:31;;;;;;;8.13;4.82;;;26.40;71.80;;;;;;5065076;28;20544;-60
2023/06/18 10:33:57;;;;;;;9.10;5.03;;;26.50;78.00;;;;;;5064634;28;20376;-61
2023/06/18 10:36:23;;;;;;;6.95;4.85;;;26.30;72.20;;;;;;5060199;28;20032;-62
2023/06/18 10:38:49;;;;;;;7.63;5.70;;;26.60;71.60;;;;;;5055847;28;20071;-61
2023/06/18 10:41:19;;;;;;;10.80;5.38;;;26.80;76.00;;;;;;5055040;28;20130;-61
2023/06/18 10:43:50;;;;;;;8.38;5.22;;;26.80;68.50;;;;;;5055569;28;20048;-61
2023/06/18 10:46:16;;;;;;;8.77;4.88;;;26.50;71.00;;;;;;5059073;28;20739;-61
2023/06/18 10:49:16;;;;;;;11.82;5.18;;;26.80;71.50;;;;;;5052335;28;20400;-61
2023/06/18 10:51:57;;;;;;;9.20;4.88;;;26.90;67.60;;;;;;5055160;28;20436;-61
2023/06/18 10:54:26;;;;;;;7.68;4.88;;;26.80;61.70;;;;;;5060811;28;20043;-61
2023/06/18 10:56:58;;;;;;;9.15;5.00;;;26.90;63.00;;;;;;5052978;28;20032;-61
2023/06/18 10:59:46;;;;;;;6.97;5.03;;;27.00;66.00;;;;;;5050711;28;20029;-61
2023/06/18 11:02:13;;;;;;;6.65;4.82;;;27.00;61.00;;;;;;5048695;28;20048;-61
2023/06/18 11:04:39;;;;;;;10.05;5.53;;;26.90;58.10;;;;;;5067327;28;20040;-61
2023/06/18 11:07:19;;;;;;;7.35;4.63;;;26.90;59.90;;;;;;5058524;28;20032;-61
2023/06/18 11:09:58;;;;;;;6.97;4.68;;;27.00;61.40;;;;;;5053433;28;20032;-62
2023/06/18 11:12:29;;;;;;;8.75;4.47;;;27.20;65.20;;;;;;5051105;28;20047;-62
2023/06/18 11:15:16;;;;;;;5.72;4.90;;;27.20;59.70;;;;;;5054336;28;20045;-61
2023/06/18 11:17:43;;;;;;;10.10;4.95;;;27.40;61.70;;;;;;5052149;28;20045;-62
2023/06/18 11:20:11;;;;;;;9.13;5.03;;;27.40;62.70;;;;;;5054170;28;20468;-62
2023/06/18 11:22:37;;;;;;;9.57;4.90;;;27.40;66.10;;;;;;5052319;28;20037;-61
2023/06/18 11:25:06;;;;;;;8.25;4.90;;;27.40;62.10;;;;;;5050973;28;20041;-61
2023/06/18 11:27:33;;;;;;;7.88;5.00;;;27.40;63.50;;;;;;5049906;28;20501;-61
2023/06/18 11:29:59;;;;;;;6.50;4.25;;;27.50;59.50;;;;;;5054451;28;20179;-61
2023/06/18 11:32:26;;;;;;;7.68;4.50;;;27.60;57.20;;;;;;5056046;28;20456;-61
2023/06/18 11:34:54;;;;;;;10.10;4.78;;;27.60;62.20;;;;;;5050843;28;20032;-61
2023/06/18 11:37:20;;;;;;;7.65;4.80;;;27.60;58.30;;;;;;5049490;28;20051;-61
2023/06/18 11:39:47;;;;;;;8.85;5.20;;;27.60;61.70;;;;;;5050293;28;20040;-61
2023/06/18 11:42:13;;;;;;;10.98;5.53;;;27.50;57.30;;;;;;5058891;28;20082;-61
2023/06/18 11:44:53;;;;;;;6.20;4.78;;;27.40;56.90;;;;;;5054471;28;20032;-61
2023/06/18 11:47:19;;;;;;;6.35;4.50;;;27.70;56.10;;;;;;5051768;28;20048;-61
2023/06/18 11:49:46;;;;;;;6.30;5.15;;;27.70;60.20;;;;;;5048190;28;20032;-61
2023/06/18 11:52:17;;;;;;;7.25;4.78;;;27.70;60.20;;;;;;5048053;28;20420;-61
2023/06/18 11:54:44;;;;;;;6.35;4.57;;;27.70;60.60;;;;;;5049635;28;20082;-61
2023/06/18 11:57:11;;;;;;;7.35;4.70;;;27.80;61.10;;;;;;5050840;28;20104;-61
2023/06/18 11:59:39;;;;;;;5.72;4.78;;;27.80;60.60;;;;;;5058225;28;20036;-61
2023/06/18 12:02:22;;;;;;;7.30;4.72;;;27.90;62.80;;;;;;5062294;28;20042;-62
2023/06/18 12:04:48;;;;;;;;;;;28.10;58.40;;;;;;5052055;28;20071;-61
2023/06/18 12:07:22;;;;;;;7.20;4.80;;;27.90;54.70;;;;;;5057632;28;20404;-61
2023/06/18 12:09:49;;;;;;;7.82;4.82;;;28.10;55.40;;;;;;5054376;28;20091;-62
2023/06/18 12:12:34;;;;;;;6.13;5.05;;;28.10;55.10;;;;;;5054160;28;20029;-62
2023/06/18 12:15:14;;;;;;;8.65;4.65;;;28.10;56.20;;;;;;5051506;28;20056;-62
2023/06/18 12:17:53;;;;;;;6.70;4.90;;;28.10;59.70;;;;;;5048660;28;20134;-61
2023/06/18 12:20:20;;;;;;;7.40;4.90;;;28.00;67.50;;;;;;5050123;28;20040;-61
2023/06/18 12:22:46;;;;;;;9.43;4.72;;;28.00;61.80;;;;;;5048063;28;20563;-62
2023/06/18 12:25:12;;;;;;;8.68;4.75;;;28.00;54.10;;;;;;5048534;28;20040;-61
2023/06/18 12:27:41;;;;;;;7.13;4.80;;;28.00;55.70;;;;;;5048542;28;20032;-62
2023/06/18 12:30:07;;;;;;;5.55;5.03;;;28.00;54.40;;;;;;5054920;28;20267;-61
2023/06/18 12:32:34;;;;;;;6.65;4.50;;;28.10;53.40;;;;;;5049633;28;20333;-61
2023/06/18 12:35:17;;;;;;;5.45;4.47;;;28.20;54.40;;;;;;5051038;28;20044;-61
2023/06/18 12:37:45;;;;;;;5.40;4.65;;;28.10;56.60;;;;;;5048864;28;20040;-61
2023/06/18 12:40:18;;;;;;;10.50;4.53;;;28.10;61.30;;;;;;5048706;28;20048;-61
2023/06/18 12:42:45;;;;;;;7.60;5.00;;;28.10;55.80;;;;;;5054926;28;20170;-62